createdAt,value
2017-03-16T00:00:08.475Z,85.27
2017-03-16T00:01:18.029Z,85.46
2017-03-16T00:02:27.049Z,85.36
2017-03-16T00:03:35.807Z,85.27
2017-03-16T00:04:44.458Z,85.46
2017-03-16T00:05:53.170Z,85.65
2017-03-16T00:07:02.428Z,85.55
2017-03-16T00:08:11.079Z,85.61
2017-03-16T00:09:19.982Z,85.42
2017-03-16T00:10:28.927Z,85.32
2017-03-16T00:11:38.182Z,85.42
2017-03-16T00:12:46.837Z,84.94
2017-03-16T00:13:55.572Z,85.13
2017-03-16T00:15:04.228Z,84.75
2017-03-16T00:16:13.277Z,85.61
2017-03-16T00:17:21.931Z,85.99
2017-03-16T00:18:31.200Z,85.47
2017-03-16T00:19:39.861Z,85.28
2017-03-16T00:20:48.762Z,85.47
2017-03-16T00:21:58.403Z,85.57
2017-03-16T00:23:07.060Z,85.75
2017-03-16T00:24:16.009Z,85.66
2017-03-16T00:25:24.660Z,85.85
2017-03-16T00:26:33.313Z,85.85
2017-03-16T00:27:42.270Z,85.75
2017-03-16T00:28:50.919Z,85.19
2017-03-16T00:29:59.575Z,85.38
2017-03-16T00:31:08.317Z,85.38
2017-03-16T00:32:16.965Z,85.75
2017-03-16T00:33:25.629Z,85.09
2017-03-16T00:34:34.315Z,85.19
2017-03-16T00:35:43.265Z,85.19
2017-03-16T00:36:52.227Z,85.19
2017-03-16T00:38:01.728Z,85.38
2017-03-16T00:39:10.412Z,85.19
2017-03-16T00:40:19.062Z,85.32
2017-03-16T00:41:27.718Z,85.32
2017-03-16T00:42:36.366Z,85.04
2017-03-16T00:43:45.089Z,85.13
2017-03-16T00:44:53.736Z,85.23
2017-03-16T00:46:02.686Z,84.75
2017-03-16T00:47:11.648Z,85.42
2017-03-16T00:48:20.302Z,85.42
2017-03-16T00:49:29.252Z,85.61
2017-03-16T00:50:37.980Z,85.61
2017-03-16T00:51:46.638Z,85.7
2017-03-16T00:52:55.437Z,85.38
2017-03-16T00:54:04.392Z,86.04
2017-03-16T00:55:13.602Z,86.22
2017-03-16T00:56:22.551Z,85.57
2017-03-16T00:57:31.242Z,85.38
2017-03-16T00:58:39.890Z,85.47
2017-03-16T00:59:48.842Z,85.09
2017-03-16T01:00:57.498Z,85.47
2017-03-16T01:02:06.155Z,85.57
2017-03-16T01:03:15.316Z,85.8
2017-03-16T01:04:23.972Z,85.89
2017-03-16T01:05:32.616Z,85.8
2017-03-16T01:06:41.594Z,85.7
2017-03-16T01:07:51.141Z,85.8
2017-03-16T01:09:00.093Z,85.8
2017-03-16T01:10:08.742Z,85.61
2017-03-16T01:11:17.485Z,85.7
2017-03-16T01:12:26.444Z,85.42
2017-03-16T01:13:35.416Z,85.32
2017-03-16T01:14:44.063Z,85.23
2017-03-16T01:15:53.454Z,85.42
2017-03-16T01:17:02.412Z,85.42
2017-03-16T01:18:11.823Z,85.32
2017-03-16T01:19:20.798Z,85.32
2017-03-16T01:20:29.749Z,84.75
2017-03-16T01:21:38.399Z,85.42
2017-03-16T01:22:47.415Z,85.23
2017-03-16T01:23:57.270Z,85.23
2017-03-16T01:25:05.923Z,85.23
2017-03-16T01:26:15.191Z,85.51
2017-03-16T01:27:23.858Z,85.38
2017-03-16T01:28:32.931Z,85.19
2017-03-16T01:29:41.769Z,85.28
2017-03-16T01:30:51.202Z,85.47
2017-03-16T01:32:00.169Z,85.38
2017-03-16T01:33:08.821Z,85.89
2017-03-16T01:34:17.983Z,85.7
2017-03-16T01:35:27.186Z,85.13
2017-03-16T01:36:36.152Z,85.7
2017-03-16T01:37:44.802Z,85.38
2017-03-16T01:38:54.350Z,85.66
2017-03-16T01:40:03.338Z,85.19
2017-03-16T01:41:12.293Z,85.57
2017-03-16T01:42:21.006Z,85.57
2017-03-16T01:43:29.673Z,85.57
2017-03-16T01:44:38.368Z,85.57
2017-03-16T01:45:47.331Z,85.75
2017-03-16T01:46:56.244Z,85.75
2017-03-16T01:48:05.202Z,85.66
2017-03-16T01:49:13.874Z,86.13
2017-03-16T01:50:23.168Z,86.04
2017-03-16T01:51:32.592Z,86.32
2017-03-16T01:52:41.538Z,86.18
2017-03-16T01:53:51.412Z,85.8
2017-03-16T01:55:00.065Z,85.51
2017-03-16T01:56:08.725Z,85.57
2017-03-16T01:57:17.716Z,85.94
2017-03-16T01:58:26.668Z,86.04
2017-03-16T01:59:35.332Z,85.38
2017-03-16T02:00:44.888Z,85.38
2017-03-16T02:01:53.842Z,85.57
2017-03-16T02:03:02.492Z,85.19
2017-03-16T02:04:11.689Z,85.47
2017-03-16T02:05:20.348Z,85.75
2017-03-16T02:06:29.136Z,85.66
2017-03-16T02:07:37.837Z,85.85
2017-03-16T02:08:47.095Z,86.18
2017-03-16T02:09:56.434Z,85.8
2017-03-16T02:11:05.681Z,85.89
2017-03-16T02:12:14.333Z,85.51
2017-03-16T02:13:23.588Z,85.75
2017-03-16T02:14:32.254Z,85.85
2017-03-16T02:15:40.907Z,86.27
2017-03-16T02:16:49.560Z,86.04
2017-03-16T02:17:58.235Z,86.46
2017-03-16T02:19:07.187Z,86.41
2017-03-16T02:20:16.448Z,86.46
2017-03-16T02:21:26.252Z,86.41
2017-03-16T02:22:34.903Z,86.22
2017-03-16T02:23:43.559Z,86.22
2017-03-16T02:24:52.510Z,86.32
2017-03-16T02:26:01.163Z,86.22
2017-03-16T02:27:09.822Z,86.41
2017-03-16T02:28:18.833Z,86.51
2017-03-16T02:29:27.489Z,86.6
2017-03-16T02:30:36.457Z,86.32
2017-03-16T02:31:45.756Z,86.41
2017-03-16T02:32:54.663Z,86.51
2017-03-16T02:34:03.670Z,86.51
2017-03-16T02:35:12.335Z,86.22
2017-03-16T02:36:21.292Z,86.6
2017-03-16T02:37:29.977Z,86.04
2017-03-16T02:38:39.298Z,86.32
2017-03-16T02:39:48.307Z,86.32
2017-03-16T02:40:57.257Z,86.89
2017-03-16T02:42:06.209Z,86.51
2017-03-16T02:43:15.159Z,86.32
2017-03-16T02:44:25.017Z,86.13
2017-03-16T02:45:34.273Z,86.22
2017-03-16T02:46:43.519Z,86.51
2017-03-16T02:47:52.856Z,86.32
2017-03-16T02:49:02.196Z,86.22
2017-03-16T02:50:11.100Z,86.41
2017-03-16T02:51:19.757Z,86.6
2017-03-16T02:52:28.709Z,86.36
2017-03-16T02:53:37.658Z,86.22
2017-03-16T02:54:46.466Z,86.04
2017-03-16T02:55:55.460Z,86.22
2017-03-16T02:57:04.427Z,86.13
2017-03-16T02:58:13.084Z,86.18
2017-03-16T02:59:22.764Z,86.74
2017-03-16T03:00:31.716Z,86.36
2017-03-16T03:01:40.595Z,86.36
2017-03-16T03:02:49.849Z,86.55
2017-03-16T03:03:58.853Z,86.46
2017-03-16T03:05:08.673Z,86.36
2017-03-16T03:06:17.329Z,86.27
2017-03-16T03:07:26.546Z,86.36
2017-03-16T03:08:35.794Z,86.27
2017-03-16T03:09:44.766Z,86.55
2017-03-16T03:10:53.800Z,86.46
2017-03-16T03:12:02.757Z,86.55
2017-03-16T03:13:11.416Z,85.99
2017-03-16T03:14:20.405Z,86.27
2017-03-16T03:15:29.659Z,86.18
2017-03-16T03:16:38.659Z,85.85
2017-03-16T03:17:47.922Z,85.94
2017-03-16T03:18:56.851Z,85.75
2017-03-16T03:20:05.845Z,85.47
2017-03-16T03:21:14.810Z,85.38
2017-03-16T03:22:23.473Z,85.66
2017-03-16T03:23:32.129Z,85.85
2017-03-16T03:24:41.090Z,85.85
2017-03-16T03:25:50.041Z,85.85
2017-03-16T03:26:58.991Z,85.75
2017-03-16T03:28:07.670Z,85.66
2017-03-16T03:29:16.729Z,85.57
2017-03-16T03:30:25.993Z,85.66
2017-03-16T03:31:34.642Z,85.47
2017-03-16T03:32:43.894Z,85.47
2017-03-16T03:33:52.843Z,85.57
2017-03-16T03:35:02.093Z,86.04
2017-03-16T03:36:11.366Z,86.13
2017-03-16T03:37:20.620Z,85.38
2017-03-16T03:38:29.580Z,86.04
2017-03-16T03:39:39.133Z,86.22
2017-03-16T03:40:47.812Z,86.13
2017-03-16T03:41:57.059Z,85.94
2017-03-16T03:43:06.008Z,86.22
2017-03-16T03:44:15.012Z,85.85
2017-03-16T03:45:23.969Z,86.04
2017-03-16T03:46:32.670Z,86.04
2017-03-16T03:47:41.883Z,85.66
2017-03-16T03:48:50.554Z,85.57
2017-03-16T03:49:59.815Z,85.47
2017-03-16T03:51:09.119Z,85.66
2017-03-16T03:52:18.067Z,85.57
2017-03-16T03:53:27.024Z,85.85
2017-03-16T03:54:35.673Z,85.66
2017-03-16T03:55:44.627Z,86.22
2017-03-16T03:56:53.279Z,86.04
2017-03-16T03:58:02.532Z,86.32
2017-03-16T03:59:11.180Z,86.41
2017-03-16T04:00:19.836Z,86.13
2017-03-16T04:01:28.490Z,86.04
2017-03-16T04:02:37.442Z,86.32
2017-03-16T04:03:46.395Z,86.32
2017-03-16T04:04:55.604Z,86.22
2017-03-16T04:06:05.158Z,86.13
2017-03-16T04:07:14.106Z,86.32
2017-03-16T04:08:23.362Z,85.85
2017-03-16T04:09:32.608Z,85.66
2017-03-16T04:10:41.257Z,86.22
2017-03-16T04:11:50.511Z,86.22
2017-03-16T04:12:59.462Z,86.22
2017-03-16T04:14:08.712Z,85.85
2017-03-16T04:15:17.964Z,86.32
2017-03-16T04:16:26.874Z,86.13
2017-03-16T04:17:35.827Z,86.13
2017-03-16T04:18:44.771Z,86.04
2017-03-16T04:19:54.324Z,86.51
2017-03-16T04:21:02.973Z,86.22
2017-03-16T04:22:11.631Z,86.04
2017-03-16T04:23:20.285Z,86.32
2017-03-16T04:24:28.936Z,86.6
2017-03-16T04:25:37.882Z,86.32
2017-03-16T04:26:47.132Z,86.41
2017-03-16T04:27:56.079Z,87.17
2017-03-16T04:29:05.633Z,86.7
2017-03-16T04:30:14.583Z,86.98
2017-03-16T04:31:23.837Z,86.89
2017-03-16T04:32:33.092Z,87.17
2017-03-16T04:33:41.738Z,87.08
2017-03-16T04:34:50.390Z,86.89
2017-03-16T04:35:59.343Z,86.98
2017-03-16T04:37:08.293Z,86.6
2017-03-16T04:38:17.542Z,86.32
2017-03-16T04:39:26.192Z,86.32
2017-03-16T04:40:35.445Z,86.41
2017-03-16T04:41:44.092Z,86.7
2017-03-16T04:42:52.741Z,86.22
2017-03-16T04:44:01.704Z,86.13
2017-03-16T04:45:10.656Z,86.37
2017-03-16T04:46:19.334Z,86.09
2017-03-16T04:47:28.291Z,86.18
2017-03-16T04:48:37.549Z,86.18
2017-03-16T04:49:46.200Z,86.18
2017-03-16T04:50:55.725Z,85.9
2017-03-16T04:52:04.679Z,85.99
2017-03-16T04:53:13.334Z,85.99
2017-03-16T04:54:22.293Z,86.28
2017-03-16T04:55:31.542Z,86.47
2017-03-16T04:56:40.194Z,86.37
2017-03-16T04:57:48.851Z,86.28
2017-03-16T04:58:58.102Z,86.28
2017-03-16T05:00:07.051Z,86.47
2017-03-16T05:01:16.001Z,86.66
2017-03-16T05:02:24.953Z,86.47
2017-03-16T05:03:33.604Z,86.42
2017-03-16T05:04:42.557Z,86.37
2017-03-16T05:05:51.811Z,86.47
2017-03-16T05:07:00.461Z,86.75
2017-03-16T05:08:09.965Z,86.47
2017-03-16T05:09:18.918Z,86.66
2017-03-16T05:10:28.769Z,86.52
2017-03-16T05:11:37.722Z,86.52
2017-03-16T05:12:46.375Z,86.33
2017-03-16T05:13:56.241Z,86.42
2017-03-16T05:15:05.197Z,86.28
2017-03-16T05:16:14.145Z,86.33
2017-03-16T05:17:22.807Z,86.66
2017-03-16T05:18:32.067Z,86.75
2017-03-16T05:19:41.573Z,86.37
2017-03-16T05:20:50.524Z,86.52
2017-03-16T05:21:59.475Z,85.8
2017-03-16T05:23:08.133Z,86.14
2017-03-16T05:24:17.689Z,86.33
2017-03-16T05:25:26.946Z,86.66
2017-03-16T05:26:35.604Z,86.33
2017-03-16T05:27:44.266Z,86.52
2017-03-16T05:28:53.227Z,86.23
2017-03-16T05:30:02.478Z,86.52
2017-03-16T05:31:11.682Z,86.61
2017-03-16T05:32:20.632Z,86.52
2017-03-16T05:33:30.191Z,86.42
2017-03-16T05:34:39.757Z,86.42
2017-03-16T05:35:48.713Z,86.47
2017-03-16T05:36:57.365Z,86.28
2017-03-16T05:38:06.313Z,86.37
2017-03-16T05:39:15.571Z,86.56
2017-03-16T05:40:25.424Z,86.28
2017-03-16T05:41:34.671Z,86.18
2017-03-16T05:42:43.574Z,86.66
2017-03-16T05:43:52.863Z,87.23
2017-03-16T05:45:01.815Z,86.85
2017-03-16T05:46:10.765Z,86.56
2017-03-16T05:47:19.417Z,86.28
2017-03-16T05:48:28.679Z,86.47
2017-03-16T05:49:38.234Z,86.75
2017-03-16T05:50:47.189Z,87.13
2017-03-16T05:51:55.841Z,87.04
2017-03-16T05:53:05.091Z,87.04
2017-03-16T05:54:14.906Z,87.13
2017-03-16T05:55:24.164Z,86.66
2017-03-16T05:56:33.118Z,86.75
2017-03-16T05:57:41.790Z,86.66
2017-03-16T05:58:51.087Z,86.66
2017-03-16T06:00:00.348Z,86.47
2017-03-16T06:01:09.303Z,86.28
2017-03-16T06:02:17.966Z,86.66
2017-03-16T06:03:26.922Z,86.94
2017-03-16T06:04:36.177Z,87.04
2017-03-16T06:05:45.379Z,86.09
2017-03-16T06:06:54.029Z,86.28
2017-03-16T06:08:02.982Z,86.94
2017-03-16T06:09:12.535Z,87.04
2017-03-16T06:10:21.790Z,86.85
2017-03-16T06:11:31.039Z,87.23
2017-03-16T06:12:39.989Z,86.85
2017-03-16T06:13:49.849Z,87.04
2017-03-16T06:14:59.706Z,87.04
2017-03-16T06:16:08.955Z,87.04
2017-03-16T06:17:18.463Z,87.04
2017-03-16T06:18:27.417Z,86.85
2017-03-16T06:19:36.679Z,87.13
2017-03-16T06:20:45.634Z,87.04
2017-03-16T06:21:54.291Z,86.85
2017-03-16T06:23:02.942Z,86.75
2017-03-16T06:24:12.205Z,86.85
2017-03-16T06:25:22.061Z,87.04
2017-03-16T06:26:31.310Z,87.13
2017-03-16T06:27:40.265Z,87.32
2017-03-16T06:28:50.121Z,86.94
2017-03-16T06:29:59.075Z,86.85
2017-03-16T06:31:08.031Z,87.23
2017-03-16T06:32:16.686Z,86.85
2017-03-16T06:33:25.341Z,86.75
2017-03-16T06:34:34.592Z,87.23
2017-03-16T06:35:43.244Z,86.75
2017-03-16T06:36:52.502Z,87.23
2017-03-16T06:38:01.756Z,87.6
2017-03-16T06:39:11.310Z,87.6
2017-03-16T06:40:21.108Z,87.7
2017-03-16T06:41:29.762Z,87.88
2017-03-16T06:42:38.415Z,87.74
2017-03-16T06:43:48.272Z,88.02
2017-03-16T06:44:57.634Z,88.12
2017-03-16T06:46:06.637Z,87.74
2017-03-16T06:47:15.324Z,87.74
2017-03-16T06:48:24.579Z,87.65
2017-03-16T06:49:34.132Z,87.46
2017-03-16T06:50:42.882Z,87.65
2017-03-16T06:51:52.044Z,87.74
2017-03-16T06:53:00.701Z,87.27
2017-03-16T06:54:09.952Z,87.46
2017-03-16T06:55:19.211Z,87.46
2017-03-16T06:56:27.864Z,87.93
2017-03-16T06:57:37.122Z,87.84
2017-03-16T06:58:46.676Z,87.55
2017-03-16T06:59:55.638Z,87.46
2017-03-16T07:01:04.899Z,87.65
2017-03-16T07:02:13.853Z,88.12
2017-03-16T07:03:23.060Z,87.69
2017-03-16T07:04:32.615Z,87.98
2017-03-16T07:05:41.863Z,87.98
2017-03-16T07:06:50.511Z,88.17
2017-03-16T07:07:59.468Z,88.35
2017-03-16T07:09:08.726Z,87.78
2017-03-16T07:10:18.287Z,87.88
2017-03-16T07:11:26.935Z,87.59
2017-03-16T07:12:35.581Z,87.59
2017-03-16T07:13:44.843Z,87.78
2017-03-16T07:14:54.405Z,87.4
2017-03-16T07:16:03.668Z,87.5
2017-03-16T07:17:12.321Z,87.88
2017-03-16T07:18:21.275Z,87.69
2017-03-16T07:19:30.532Z,87.98
2017-03-16T07:20:39.798Z,87.78
2017-03-16T07:21:48.755Z,87.69
2017-03-16T07:22:58.040Z,87.5
2017-03-16T07:24:07.600Z,87.64
2017-03-16T07:25:16.860Z,87.83
2017-03-16T07:26:25.523Z,87.54
2017-03-16T07:27:34.776Z,87.73
2017-03-16T07:28:44.051Z,87.64
2017-03-16T07:29:53.314Z,87.54
2017-03-16T07:31:02.574Z,86.79
2017-03-16T07:32:12.074Z,86.69
2017-03-16T07:33:21.029Z,87.07
2017-03-16T07:34:29.984Z,87.64
2017-03-16T07:35:39.238Z,87.16
2017-03-16T07:36:48.191Z,87.21
2017-03-16T07:37:57.159Z,87.12
2017-03-16T07:39:06.419Z,87.59
2017-03-16T07:40:15.677Z,87.49
2017-03-16T07:41:24.627Z,87.21
2017-03-16T07:42:33.587Z,87.21
2017-03-16T07:43:43.399Z,87.06
2017-03-16T07:44:52.655Z,87.16
2017-03-16T07:46:01.909Z,86.97
2017-03-16T07:47:10.860Z,86.68
2017-03-16T07:48:19.517Z,86.68
2017-03-16T07:49:28.181Z,86.97
2017-03-16T07:50:37.436Z,87.11
2017-03-16T07:51:46.392Z,86.63
2017-03-16T07:52:55.358Z,86.63
2017-03-16T07:54:04.918Z,85.97
2017-03-16T07:55:14.131Z,86.16
2017-03-16T07:56:22.789Z,85.59
2017-03-16T07:57:31.740Z,86.2
2017-03-16T07:58:40.996Z,85.53
2017-03-16T07:59:50.264Z,85.44
2017-03-16T08:00:59.525Z,85.16
2017-03-16T08:02:08.482Z,85.06
2017-03-16T08:03:17.736Z,84.49
2017-03-16T08:04:27.292Z,84.4
2017-03-16T08:05:36.253Z,84.87
2017-03-16T08:06:44.914Z,84.63
2017-03-16T08:07:54.173Z,84.63
2017-03-16T08:09:03.736Z,84.25
2017-03-16T08:10:12.997Z,84.63
2017-03-16T08:11:21.954Z,84.25
2017-03-16T08:12:30.871Z,84.29
2017-03-16T08:13:39.531Z,84.2
2017-03-16T08:14:48.201Z,83.53
2017-03-16T08:15:57.777Z,83.53
2017-03-16T08:17:06.736Z,83.48
2017-03-16T08:18:15.993Z,83.39
2017-03-16T08:19:25.557Z,82.81
2017-03-16T08:20:34.517Z,83.76
2017-03-16T08:21:43.470Z,83.19
2017-03-16T08:22:52.130Z,83.39
2017-03-16T08:24:02.240Z,83
2017-03-16T08:25:10.897Z,82.91
2017-03-16T08:26:19.556Z,82.48
2017-03-16T08:27:28.215Z,81.9
2017-03-16T08:28:36.873Z,81.71
2017-03-16T08:29:45.530Z,81.14
2017-03-16T08:30:54.186Z,81.71
2017-03-16T08:32:02.842Z,81.14
2017-03-16T08:33:11.801Z,81.33
2017-03-16T08:34:20.458Z,81.81
2017-03-16T08:35:29.366Z,80.86
2017-03-16T08:36:38.323Z,80.95
2017-03-16T08:37:46.980Z,82.28
2017-03-16T08:38:55.637Z,81.71
2017-03-16T08:40:04.597Z,81.9
2017-03-16T08:41:13.555Z,81.85
2017-03-16T08:42:22.209Z,81.95
2017-03-16T08:43:31.167Z,81.95
2017-03-16T08:44:39.820Z,82.04
2017-03-16T08:45:48.775Z,81.66
2017-03-16T08:46:57.990Z,81.95
2017-03-16T08:48:06.943Z,82.32
2017-03-16T08:49:15.896Z,82.23
2017-03-16T08:50:24.858Z,82.23
2017-03-16T08:51:33.514Z,81.66
2017-03-16T08:52:42.772Z,81.85
2017-03-16T08:53:51.425Z,81.56
2017-03-16T08:55:00.076Z,85.03
2017-03-16T08:56:09.039Z,81.32
2017-03-16T08:57:17.715Z,81.32
2017-03-16T08:58:26.672Z,81.6
2017-03-16T08:59:35.334Z,81.6
2017-03-16T09:00:44.592Z,81.98
2017-03-16T09:01:53.257Z,81.6
2017-03-16T09:03:01.924Z,82.03
2017-03-16T09:04:11.433Z,81.46
2017-03-16T09:05:20.099Z,81.26
2017-03-16T09:06:28.764Z,81.84
2017-03-16T09:07:37.731Z,80.69
2017-03-16T09:08:46.984Z,81.49
2017-03-16T09:09:56.258Z,81.59
2017-03-16T09:11:05.221Z,81.21
2017-03-16T09:12:13.884Z,80.68
2017-03-16T09:13:22.853Z,80.87
2017-03-16T09:14:32.114Z,80.39
2017-03-16T09:15:41.629Z,79.77
2017-03-16T09:16:50.889Z,80.15
2017-03-16T09:17:59.561Z,80.19
2017-03-16T09:19:09.126Z,80.66
2017-03-16T09:20:17.796Z,78.89
2017-03-16T09:21:26.761Z,79.27
2017-03-16T09:22:36.329Z,79.46
2017-03-16T09:23:45.291Z,80.46
2017-03-16T09:24:54.267Z,80.93
2017-03-16T09:26:02.936Z,80.02
2017-03-16T09:27:11.799Z,82.03
2017-03-16T09:28:20.762Z,77.76
2017-03-16T09:29:29.430Z,78.24
2017-03-16T09:30:38.097Z,77.38
2017-03-16T09:31:47.067Z,77.51
2017-03-16T09:32:56.550Z,76.65
2017-03-16T09:34:05.820Z,76.4
2017-03-16T09:35:14.485Z,76.35
2017-03-16T09:36:23.486Z,76.06
2017-03-16T09:37:32.456Z,73.03
2017-03-16T09:38:41.123Z,70.64
2017-03-16T09:39:50.093Z,69.96
2017-03-16T09:40:59.361Z,66.45
2017-03-16T09:42:08.319Z,65.52
2017-03-16T09:43:16.992Z,64.18
2017-03-16T09:44:25.910Z,61.62
2017-03-16T09:45:35.178Z,57.71
2017-03-16T09:46:44.446Z,59.06
2017-03-16T09:47:53.417Z,57.84
2017-03-16T09:49:02.382Z,55.94
2017-03-16T09:50:11.050Z,53.86
2017-03-16T09:51:20.022Z,51.29
2017-03-16T09:52:28.693Z,50.42
2017-03-16T09:53:37.371Z,48.97
2017-03-16T09:54:46.635Z,49.17
2017-03-16T09:55:55.606Z,48.49
2017-03-16T09:57:05.174Z,46.38
2017-03-16T09:58:14.140Z,46.55
2017-03-16T09:59:22.804Z,46.16
2017-03-16T10:00:31.768Z,46.16
2017-03-16T10:01:40.448Z,47.3
2017-03-16T10:02:49.118Z,48.07
2017-03-16T10:03:57.784Z,49.72
2017-03-16T10:05:07.053Z,47.34
2017-03-16T10:06:16.019Z,46.4
2017-03-16T10:07:25.537Z,44.49
2017-03-16T10:08:34.210Z,42.49
2017-03-16T10:09:42.881Z,42.97
2017-03-16T10:10:51.552Z,43.94
2017-03-16T10:12:00.524Z,40.11
2017-03-16T10:13:09.198Z,38.76
2017-03-16T10:14:17.868Z,40.19
2017-03-16T10:15:26.535Z,39.99
2017-03-16T10:16:35.509Z,39.29
2017-03-16T10:17:44.185Z,40.07
2017-03-16T10:18:52.856Z,41.32
2017-03-16T10:20:01.818Z,42.16
2017-03-16T10:21:10.521Z,42.16
2017-03-16T10:22:19.488Z,42.65
2017-03-16T10:23:28.153Z,43.44
2017-03-16T10:24:37.124Z,43.46
2017-03-16T10:25:46.398Z,41.36
2017-03-16T10:26:55.665Z,40.05
2017-03-16T10:28:04.344Z,38.04
2017-03-16T10:29:13.021Z,37.77
2017-03-16T10:30:21.947Z,36.9
2017-03-16T10:31:31.223Z,37.77
2017-03-16T10:32:40.194Z,37.29
2017-03-16T10:33:49.465Z,36.03
2017-03-16T10:34:58.133Z,34.18
2017-03-16T10:36:07.114Z,35.4
2017-03-16T10:37:15.791Z,35.78
2017-03-16T10:38:24.465Z,38.85
2017-03-16T10:39:33.439Z,40.28
2017-03-16T10:40:42.411Z,40.81
2017-03-16T10:41:51.634Z,40.22
2017-03-16T10:43:00.305Z,44.22
2017-03-16T10:44:09.278Z,45.83
2017-03-16T10:45:17.949Z,44.17
2017-03-16T10:46:26.619Z,46.07
2017-03-16T10:47:35.295Z,48.85
2017-03-16T10:48:44.272Z,47.51
2017-03-16T10:49:52.945Z,44.06
2017-03-16T10:51:01.916Z,44.03
2017-03-16T10:52:11.189Z,43.24
2017-03-16T10:53:19.858Z,46.29
2017-03-16T10:54:28.528Z,48.09
2017-03-16T10:55:37.206Z,47.71
2017-03-16T10:56:46.467Z,46.75
2017-03-16T10:57:55.444Z,46.46
2017-03-16T10:59:04.369Z,49.24
2017-03-16T11:00:13.041Z,47.92
2017-03-16T11:01:21.712Z,46.86
2017-03-16T11:02:30.682Z,45.52
2017-03-16T11:03:39.649Z,43.63
2017-03-16T11:04:48.321Z,41.11
2017-03-16T11:05:56.995Z,39.29
2017-03-16T11:07:05.967Z,40.44
2017-03-16T11:08:14.636Z,41.04
2017-03-16T11:09:23.603Z,41.61
2017-03-16T11:10:32.827Z,41.23
2017-03-16T11:11:41.501Z,42.98
2017-03-16T11:12:50.471Z,42.98
2017-03-16T11:13:59.445Z,41.75
2017-03-16T11:15:08.114Z,38.02
2017-03-16T11:16:17.684Z,36.97
2017-03-16T11:17:26.390Z,37.55
2017-03-16T11:18:35.356Z,37.64
2017-03-16T11:19:44.023Z,38.6
2017-03-16T11:20:52.692Z,38.04
2017-03-16T11:22:01.910Z,39.01
2017-03-16T11:23:10.880Z,39.41
2017-03-16T11:24:19.549Z,38.26
2017-03-16T11:25:28.219Z,38.35
2017-03-16T11:26:36.890Z,41.12
2017-03-16T11:27:45.561Z,39.49
2017-03-16T11:28:54.235Z,37.85
2017-03-16T11:30:03.211Z,38.02
2017-03-16T11:31:12.187Z,38.99
2017-03-16T11:32:20.863Z,39.83
2017-03-16T11:33:30.134Z,41.56
2017-03-16T11:34:38.806Z,42.79
2017-03-16T11:35:47.476Z,42.5
2017-03-16T11:36:56.478Z,41.61
2017-03-16T11:38:05.451Z,41.71
2017-03-16T11:39:14.424Z,42.36
2017-03-16T11:40:23.088Z,43.7
2017-03-16T11:41:32.057Z,47.71
2017-03-16T11:42:40.728Z,47.99
2017-03-16T11:43:49.693Z,48.66
2017-03-16T11:44:58.660Z,49.55
2017-03-16T11:46:07.334Z,49.16
2017-03-16T11:47:16.300Z,48.78
2017-03-16T11:48:24.972Z,49.84
2017-03-16T11:49:33.643Z,48.4
2017-03-16T11:50:42.555Z,49.16
2017-03-16T11:51:51.226Z,48.21
2017-03-16T11:53:00.488Z,48.02
2017-03-16T11:54:09.457Z,49.26
2017-03-16T11:55:18.129Z,48.88
2017-03-16T11:56:27.104Z,49.84
2017-03-16T11:57:36.384Z,51.28
2017-03-16T11:58:45.054Z,51.46
2017-03-16T11:59:54.023Z,50.51
2017-03-16T12:01:03.293Z,51.78
2017-03-16T12:02:12.463Z,47.82
2017-03-16T12:03:21.136Z,47.25
2017-03-16T12:04:29.806Z,47.82
2017-03-16T12:05:38.477Z,48.11
2017-03-16T12:06:47.748Z,48.28
2017-03-16T12:07:56.964Z,49.52
2017-03-16T12:09:06.231Z,50
2017-03-16T12:10:14.894Z,51.51
2017-03-16T12:11:23.558Z,51.42
2017-03-16T12:12:32.227Z,51.82
2017-03-16T12:13:41.194Z,51.06
2017-03-16T12:14:49.863Z,49.71
2017-03-16T12:15:58.532Z,49.14
2017-03-16T12:17:07.514Z,51.34
2017-03-16T12:18:16.486Z,51.37
2017-03-16T12:19:25.397Z,49.93
2017-03-16T12:20:34.668Z,50.7
2017-03-16T12:21:43.637Z,51.85
2017-03-16T12:22:52.603Z,52.23
2017-03-16T12:24:01.269Z,52.52
2017-03-16T12:25:09.930Z,52.42
2017-03-16T12:26:18.598Z,52.55
2017-03-16T12:27:27.557Z,51.49
2017-03-16T12:28:36.224Z,51.78
2017-03-16T12:29:44.888Z,51.49
2017-03-16T12:30:54.105Z,52.45
2017-03-16T12:32:03.075Z,53.12
2017-03-16T12:33:12.341Z,53.31
2017-03-16T12:34:21.008Z,51.78
2017-03-16T12:35:29.669Z,51.04
2017-03-16T12:36:38.941Z,49.98
2017-03-16T12:37:48.216Z,49.21
2017-03-16T12:38:57.180Z,48.93
2017-03-16T12:40:06.144Z,50.08
2017-03-16T12:41:14.817Z,49.98
2017-03-16T12:42:24.038Z,48.47
2017-03-16T12:43:33.002Z,46.84
2017-03-16T12:44:41.668Z,45.98
2017-03-16T12:45:50.626Z,45.3
2017-03-16T12:46:59.298Z,45.3
2017-03-16T12:48:07.967Z,44.82
2017-03-16T12:49:16.926Z,45.68
2017-03-16T12:50:25.657Z,46.43
2017-03-16T12:51:34.319Z,45.86
2017-03-16T12:52:43.287Z,46.05
2017-03-16T12:53:52.796Z,48.07
2017-03-16T12:55:01.459Z,46.74
2017-03-16T12:56:10.429Z,47.77
2017-03-16T12:57:19.390Z,45.28
2017-03-16T12:58:28.057Z,45.47
2017-03-16T12:59:37.875Z,46.24
2017-03-16T13:00:46.539Z,47.87
2017-03-16T13:01:56.117Z,48.44
2017-03-16T13:03:05.076Z,48.16
2017-03-16T13:04:14.047Z,47.87
2017-03-16T13:05:22.717Z,46.43
2017-03-16T13:06:31.384Z,46.53
2017-03-16T13:07:40.052Z,47.68
2017-03-16T13:08:48.715Z,48.16
2017-03-16T13:09:57.676Z,46.53
2017-03-16T13:11:06.896Z,47.94
2017-03-16T13:12:15.899Z,48.93
2017-03-16T13:13:24.861Z,49.79
2017-03-16T13:14:33.823Z,49.88
2017-03-16T13:15:42.495Z,49.69
2017-03-16T13:16:52.364Z,48.16
2017-03-16T13:18:01.027Z,48.07
2017-03-16T13:19:09.700Z,47.77
2017-03-16T13:20:18.372Z,47.97
2017-03-16T13:21:27.935Z,48.35
2017-03-16T13:22:36.852Z,49.79
2017-03-16T13:23:45.814Z,51.14
2017-03-16T13:24:54.782Z,50.17
2017-03-16T13:26:03.747Z,48.54
2017-03-16T13:27:12.712Z,48.83
2017-03-16T13:28:21.376Z,47.97
2017-03-16T13:29:30.633Z,46.91
2017-03-16T13:30:39.598Z,46.24
2017-03-16T13:31:48.558Z,48.07
2017-03-16T13:32:57.519Z,49.69
2017-03-16T13:34:06.777Z,51.32
2017-03-16T13:35:15.445Z,49.98
2017-03-16T13:36:24.705Z,49.31
2017-03-16T13:37:33.365Z,49.82
2017-03-16T13:38:42.325Z,48.85
2017-03-16T13:39:51.289Z,46.94
2017-03-16T13:41:00.249Z,46.28
2017-03-16T13:42:08.910Z,46.26
2017-03-16T13:43:17.874Z,46.26
2017-03-16T13:44:26.833Z,45.4
2017-03-16T13:45:36.043Z,46.07
2017-03-16T13:46:45.009Z,45.01
2017-03-16T13:47:53.970Z,45.86
2017-03-16T13:49:02.936Z,47.01
2017-03-16T13:50:11.605Z,48.25
2017-03-16T13:51:20.568Z,48.74
2017-03-16T13:52:29.533Z,48.07
2017-03-16T13:53:38.492Z,48.18
2017-03-16T13:54:47.461Z,47.51
2017-03-16T13:55:56.724Z,47.13
2017-03-16T13:57:05.740Z,47.63
2017-03-16T13:58:14.404Z,45.04
2017-03-16T13:59:23.377Z,44.27
2017-03-16T14:00:32.042Z,43.6
2017-03-16T14:01:40.717Z,44.17
2017-03-16T14:02:49.390Z,44.27
2017-03-16T14:03:58.650Z,44.37
2017-03-16T14:05:07.615Z,43.12
2017-03-16T14:06:16.286Z,44.17
2017-03-16T14:07:24.951Z,45.71
2017-03-16T14:08:34.164Z,44.84
2017-03-16T14:09:42.830Z,44.17
2017-03-16T14:10:52.393Z,44.46
2017-03-16T14:12:01.068Z,43.12
2017-03-16T14:13:10.030Z,42.16
2017-03-16T14:14:18.993Z,43.5
2017-03-16T14:15:27.958Z,44.08
2017-03-16T14:16:36.625Z,43.88
2017-03-16T14:17:45.305Z,43.12
2017-03-16T14:18:53.971Z,42.76
2017-03-16T14:20:02.636Z,42.85
2017-03-16T14:21:11.911Z,41.49
2017-03-16T14:22:20.582Z,42.64
2017-03-16T14:23:29.545Z,42.06
2017-03-16T14:24:38.216Z,42.44
2017-03-16T14:25:47.179Z,43.5
2017-03-16T14:26:55.846Z,44.73
2017-03-16T14:28:05.110Z,44.73
2017-03-16T14:29:13.778Z,46.74
2017-03-16T14:30:22.751Z,46.05
2017-03-16T14:31:31.716Z,44.34
2017-03-16T14:32:40.384Z,44.54
2017-03-16T14:33:49.046Z,43.5
2017-03-16T14:34:57.711Z,43.5
2017-03-16T14:36:06.974Z,42.85
2017-03-16T14:37:15.675Z,44.1
2017-03-16T14:38:24.639Z,44.75
2017-03-16T14:39:33.302Z,44
2017-03-16T14:40:41.975Z,44.38
2017-03-16T14:41:50.634Z,44.2
2017-03-16T14:42:59.598Z,44.2
2017-03-16T14:44:08.561Z,42.66
2017-03-16T14:45:17.229Z,42.76
2017-03-16T14:46:26.495Z,42.56
2017-03-16T14:47:35.155Z,42.18
2017-03-16T14:48:44.422Z,42.73
2017-03-16T14:49:53.692Z,43.7